sensor_id;sensor_type;location;lat;lon;timestamp;pressure;altitude;pressure_sealevel;temperature;humidity
54503;BME280;40411;50.090;21.954;2022-07-21T00:00:34;153173.69;;;16.42;100.00
54503;BME280;40411;50.090;21.954;2022-07-21T00:03:07;153191.69;;;16.49;100.00
54503;BME280;40411;50.090;21.954;2022-07-21T00:05:33;153218.63;;;16.60;100.00
54503;BME280;40411;50.090;21.954;2022-07-21T00:08:00;153230.22;;;16.65;100.00
54503;BME280;40411;50.090;21.954;2022-07-21T00:10:26;153244.34;;;16.70;100.00
54503;BME280;40411;50.090;21.954;2022-07-21T00:12:54;153235.38;;;16.67;100.00
54503;BME280;40411;50.090;21.954;2022-07-21T00:15:22;153195.53;;;16.51;100.00
54503;BME280;40411;50.090;21.954;2022-07-21T00:17:48;153198.13;;;16.52;100.00
54503;BME280;40411;50.090;21.954;2022-07-21T00:20:15;153241.78;;;16.69;100.00
54503;BME280;40411;50.090;21.954;2022-07-21T00:22:42;153249.50;;;16.72;100.00
54503;BME280;40411;50.090;21.954;2022-07-21T00:25:09;153259.81;;;16.77;100.00
54503;BME280;40411;50.090;21.954;2022-07-21T00:27:36;153273.94;;;16.82;100.00
54503;BME280;40411;50.090;21.954;2022-07-21T00:30:05;153235.38;;;16.67;100.00
54503;BME280;40411;50.090;21.954;2022-07-21T00:32:32;153239.19;;;16.68;100.00
54503;BME280;40411;50.090;21.954;2022-07-21T00:34:57;153227.66;;;16.64;100.00
54503;BME280;40411;50.090;21.954;2022-07-21T00:37:23;153219.97;;;16.61;100.00
54503;BME280;40411;50.090;21.954;2022-07-21T00:39:50;153212.25;;;16.58;100.00
54503;BME280;40411;50.090;21.954;2022-07-21T00:42:35;153137.72;;;16.28;100.00
54503;BME280;40411;50.090;21.954;2022-07-21T00:45:04;153123.59;;;16.22;100.00
54503;BME280;40411;50.090;21.954;2022-07-21T00:47:31;153103.03;;;16.14;100.00
54503;BME280;40411;50.090;21.954;2022-07-21T00:49:58;153074.78;;;16.03;100.00
54503;BME280;40411;50.090;21.954;2022-07-21T00:52:25;153040.09;;;15.89;100.00
54503;BME280;40411;50.090;21.954;2022-07-21T00:54:51;153036.22;;;15.88;100.00
54503;BME280;40411;50.090;21.954;2022-07-21T00:57:17;153037.56;;;15.88;100.00
54503;BME280;40411;50.090;21.954;2022-07-21T00:59:44;153087.63;;;16.08;100.00
54503;BME280;40411;50.090;21.954;2022-07-21T01:02:11;153074.78;;;16.03;100.00
54503;BME280;40411;50.090;21.954;2022-07-21T01:04:37;153094.06;;;16.11;100.00
54503;BME280;40411;50.090;21.954;2022-07-21T01:07:04;153110.75;;;16.17;100.00
54503;BME280;40411;50.090;21.954;2022-07-21T01:09:32;153114.63;;;16.19;100.00
54503;BME280;40411;50.090;21.954;2022-07-21T01:11:58;153123.59;;;16.22;100.00
54503;BME280;40411;50.090;21.954;2022-07-21T01:14:24;153108.19;;;16.16;100.00
54503;BME280;40411;50.090;21.954;2022-07-21T01:16:51;153055.50;;;15.95;100.00
54503;BME280;40411;50.090;21.954;2022-07-21T01:19:17;153070.91;;;16.01;100.00
54503;BME280;40411;50.090;21.954;2022-07-21T01:21:46;153011.84;;;15.78;100.00
54503;BME280;40411;50.090;21.954;2022-07-21T01:24:12;152984.81;;;15.67;100.00
54503;BME280;40411;50.090;21.954;2022-07-21T01:26:42;152933.47;;;15.47;100.00
54503;BME280;40411;50.090;21.954;2022-07-21T01:29:09;152928.34;;;15.45;100.00
54503;BME280;40411;50.090;21.954;2022-07-21T01:31:36;152966.84;;;15.60;100.00
54503;BME280;40411;50.090;21.954;2022-07-21T01:34:03;152995.19;;;15.71;100.00
54503;BME280;40411;50.090;21.954;2022-07-21T01:36:29;152965.56;;;15.59;100.00
54503;BME280;40411;50.090;21.954;2022-07-21T01:38:55;152973.25;;;15.62;100.00
54503;BME280;40411;50.090;21.954;2022-07-21T01:41:40;152910.34;;;15.37;100.00
54503;BME280;40411;50.090;21.954;2022-07-21T01:44:08;152919.38;;;15.41;100.00
54503;BME280;40411;50.090;21.954;2022-07-21T01:46:37;152941.19;;;15.50;100.00
54503;BME280;40411;50.090;21.954;2022-07-21T01:49:04;152964.28;;;15.59;100.00
54503;BME280;40411;50.090;21.954;2022-07-21T01:51:31;152964.28;;;15.59;100.00
54503;BME280;40411;50.090;21.954;2022-07-21T01:53:57;152968.16;;;15.60;100.00
54503;BME280;40411;50.090;21.954;2022-07-21T01:56:24;152873.13;;;15.23;100.00
54503;BME280;40411;50.090;21.954;2022-07-21T01:58:54;152826.91;;;15.04;100.00
54503;BME280;40411;50.090;21.954;2022-07-21T02:01:21;152816.66;;;15.00;100.00
54503;BME280;40411;50.090;21.954;2022-07-21T02:03:48;152757.63;;;14.77;100.00
54503;BME280;40411;50.090;21.954;2022-07-21T02:06:14;152789.69;;;14.89;100.00
54503;BME280;40411;50.090;21.954;2022-07-21T02:08:41;152788.41;;;14.89;100.00
54503;BME280;40411;50.090;21.954;2022-07-21T02:11:11;152764.00;;;14.79;100.00
54503;BME280;40411;50.090;21.954;2022-07-21T02:13:38;152801.25;;;14.94;100.00
54503;BME280;40411;50.090;21.954;2022-07-21T02:16:04;152785.88;;;14.88;100.00
54503;BME280;40411;50.090;21.954;2022-07-21T02:18:31;152790.97;;;14.90;100.00
54503;BME280;40411;50.090;21.954;2022-07-21T02:20:57;152740.91;;;14.70;100.00
54503;BME280;40411;50.090;21.954;2022-07-21T02:23:23;152744.78;;;14.71;100.00
54503;BME280;40411;50.090;21.954;2022-07-21T02:25:50;152746.06;;;14.72;100.00
54503;BME280;40411;50.090;21.954;2022-07-21T02:28:20;152742.19;;;14.70;100.00
54503;BME280;40411;50.090;21.954;2022-07-21T02:30:46;152747.34;;;14.72;100.00
54503;BME280;40411;50.090;21.954;2022-07-21T02:33:13;152767.88;;;14.81;100.00
54503;BME280;40411;50.090;21.954;2022-07-21T02:35:39;152782.00;;;14.86;100.00
54503;BME280;40411;50.090;21.954;2022-07-21T02:38:06;152802.53;;;14.94;100.00
54503;BME280;40411;50.090;21.954;2022-07-21T02:40:32;152764.00;;;14.79;100.00
54503;BME280;40411;50.090;21.954;2022-07-21T02:42:58;152755.03;;;14.75;100.00
54503;BME280;40411;50.090;21.954;2022-07-21T02:45:24;152730.69;;;14.66;100.00
54503;BME280;40411;50.090;21.954;2022-07-21T02:47:59;152761.47;;;14.78;100.00
54503;BME280;40411;50.090;21.954;2022-07-21T02:50:28;152765.31;;;14.80;100.00
54503;BME280;40411;50.090;21.954;2022-07-21T02:52:56;152725.53;;;14.64;100.00
54503;BME280;40411;50.090;21.954;2022-07-21T02:55:23;152712.69;;;14.59;100.00
54503;BME280;40411;50.090;21.954;2022-07-21T02:57:49;152752.47;;;14.74;100.00
54503;BME280;40411;50.090;21.954;2022-07-21T03:00:15;152737.09;;;14.68;100.00
54503;BME280;40411;50.090;21.954;2022-07-21T03:02:41;152751.22;;;14.74;100.00
54503;BME280;40411;50.090;21.954;2022-07-21T03:05:07;152769.16;;;14.81;100.00
54503;BME280;40411;50.090;21.954;2022-07-21T03:07:33;152731.94;;;14.66;100.00
54503;BME280;40411;50.090;21.954;2022-07-21T03:09:59;152770.44;;;14.82;100.00
54503;BME280;40411;50.090;21.954;2022-07-21T03:12:25;152767.88;;;14.81;100.00
54503;BME280;40411;50.090;21.954;2022-07-21T03:14:51;152757.63;;;14.77;100.00
54503;BME280;40411;50.090;21.954;2022-07-21T03:17:18;152773.03;;;14.83;100.00
54503;BME280;40411;50.090;21.954;2022-07-21T03:19:44;152782.00;;;14.86;100.00
54503;BME280;40411;50.090;21.954;2022-07-21T03:22:10;152803.81;;;14.95;100.00
54503;BME280;40411;50.090;21.954;2022-07-21T03:24:35;152829.50;;;15.05;100.00
54503;BME280;40411;50.090;21.954;2022-07-21T03:27:01;152855.13;;;15.15;100.00
54503;BME280;40411;50.090;21.954;2022-07-21T03:29:27;152859.00;;;15.17;100.00
54503;BME280;40411;50.090;21.954;2022-07-21T03:31:53;152814.09;;;14.99;100.00
54503;BME280;40411;50.090;21.954;2022-07-21T03:34:18;152760.19;;;14.78;100.00
54503;BME280;40411;50.090;21.954;2022-07-21T03:36:45;152794.84;;;14.91;100.00
54503;BME280;40411;50.090;21.954;2022-07-21T03:39:10;152802.53;;;14.94;100.00
54503;BME280;40411;50.090;21.954;2022-07-21T03:41:36;152789.69;;;14.89;100.00
54503;BME280;40411;50.090;21.954;2022-07-21T03:44:02;152839.75;;;15.09;100.00
54503;BME280;40411;50.090;21.954;2022-07-21T03:46:28;152855.13;;;15.15;100.00
54503;BME280;40411;50.090;21.954;2022-07-21T03:48:54;152857.72;;;15.16;100.00
54503;BME280;40411;50.090;21.954;2022-07-21T03:51:20;152888.53;;;15.29;100.00
54503;BME280;40411;50.090;21.954;2022-07-21T03:53:45;152909.06;;;15.37;100.00
54503;BME280;40411;50.090;21.954;2022-07-21T03:56:11;152934.75;;;15.47;100.00
54503;BME280;40411;50.090;21.954;2022-07-21T03:58:37;152982.28;;;15.66;100.00
54503;BME280;40411;50.090;21.954;2022-07-21T04:01:03;153049.06;;;15.93;100.00
54503;BME280;40411;50.090;21.954;2022-07-21T04:03:29;153045.25;;;15.91;100.00
54503;BME280;40411;50.090;21.954;2022-07-21T04:05:56;153032.41;;;15.86;100.00
54503;BME280;40411;50.090;21.954;2022-07-21T04:08:22;153032.41;;;15.86;100.00
54503;BME280;40411;50.090;21.954;2022-07-21T04:10:48;153096.59;;;16.12;100.00
54503;BME280;40411;50.090;21.954;2022-07-21T04:13:14;153151.84;;;16.34;100.00
54503;BME280;40411;50.090;21.954;2022-07-21T04:15:40;153163.44;;;16.38;100.00
54503;BME280;40411;50.090;21.954;2022-07-21T04:18:07;153163.44;;;16.38;100.00
54503;BME280;40411;50.090;21.954;2022-07-21T04:20:34;153178.84;;;16.44;100.00
54503;BME280;40411;50.090;21.954;2022-07-21T04:23:00;153241.78;;;16.69;100.00
54503;BME280;40411;50.090;21.954;2022-07-21T04:25:26;153225.06;;;16.63;100.00
54503;BME280;40411;50.090;21.954;2022-07-21T04:27:52;153291.94;;;16.89;100.00
54503;BME280;40411;50.090;21.954;2022-07-21T04:30:20;153336.91;;;17.07;100.00
54503;BME280;40411;50.090;21.954;2022-07-21T04:32:46;153397.34;;;17.31;100.00
54503;BME280;40411;50.090;21.954;2022-07-21T04:35:13;153477.03;;;17.63;100.00
54503;BME280;40411;50.090;21.954;2022-07-21T04:37:39;153518.22;;;17.79;100.00
54503;BME280;40411;50.090;21.954;2022-07-21T04:40:08;153597.97;;;18.11;100.00
54503;BME280;40411;50.090;21.954;2022-07-21T04:42:35;153659.69;;;18.36;100.00
54503;BME280;40411;50.090;21.954;2022-07-21T04:45:01;153630.09;;;18.24;100.00
54503;BME280;40411;50.090;21.954;2022-07-21T04:47:27;153646.84;;;18.30;100.00
54503;BME280;40411;50.090;21.954;2022-07-21T04:49:53;153681.59;;;18.44;100.00
54503;BME280;40411;50.090;21.954;2022-07-21T04:52:18;153740.75;;;18.68;100.00
54503;BME280;40411;50.090;21.954;2022-07-21T04:54:45;153778.06;;;18.83;100.00
54503;BME280;40411;50.090;21.954;2022-07-21T04:57:11;153845.00;;;19.09;100.00
54503;BME280;40411;50.090;21.954;2022-07-21T04:59:37;153875.88;;;19.22;100.00
54503;BME280;40411;50.090;21.954;2022-07-21T05:02:05;153893.91;;;19.29;100.00
54503;BME280;40411;50.090;21.954;2022-07-21T05:04:31;153909.34;;;19.35;100.00
54503;BME280;40411;50.090;21.954;2022-07-21T05:06:57;153976.31;;;19.61;100.00
54503;BME280;40411;50.090;21.954;2022-07-21T05:09:23;154042.00;;;19.88;100.00
54503;BME280;40411;50.090;21.954;2022-07-21T05:11:49;154108.91;;;20.14;100.00
54503;BME280;40411;50.090;21.954;2022-07-21T05:14:15;154143.69;;;20.28;100.00
54503;BME280;40411;50.090;21.954;2022-07-21T05:16:41;154191.34;;;20.47;100.00
54503;BME280;40411;50.090;21.954;2022-07-21T05:19:07;154213.28;;;20.56;100.00
54503;BME280;40411;50.090;21.954;2022-07-21T05:21:33;154241.59;;;20.67;100.00
54503;BME280;40411;50.090;21.954;2022-07-21T05:23:59;154260.94;;;20.74;100.00
54503;BME280;40411;50.090;21.954;2022-07-21T05:26:25;154264.84;;;20.76;100.00
54503;BME280;40411;50.090;21.954;2022-07-21T05:28:50;154289.28;;;20.86;100.00
54503;BME280;40411;50.090;21.954;2022-07-21T05:31:16;154321.50;;;20.98;100.00
54503;BME280;40411;50.090;21.954;2022-07-21T05:33:42;154388.47;;;21.25;100.00
54503;BME280;40411;50.090;21.954;2022-07-21T05:36:08;154429.75;;;21.41;100.00
54503;BME280;40411;50.090;21.954;2022-07-21T05:38:34;154427.19;;;21.40;100.00
54503;BME280;40411;50.090;21.954;2022-07-21T05:41:00;154476.16;;;21.60;100.00
54503;BME280;40411;50.090;21.954;2022-07-21T05:43:29;154504.53;;;21.71;100.00
54503;BME280;40411;50.090;21.954;2022-07-21T05:45:56;154525.16;;;21.79;100.00
54503;BME280;40411;50.090;21.954;2022-07-21T05:48:22;154561.22;;;21.94;100.00
54503;BME280;40411;50.090;21.954;2022-07-21T05:50:47;154574.13;;;21.99;100.00
54503;BME280;40411;50.090;21.954;2022-07-21T05:53:13;154593.47;;;22.06;100.00
54503;BME280;40411;50.090;21.954;2022-07-21T05:55:39;154583.13;;;22.02;100.00
54503;BME280;40411;50.090;21.954;2022-07-21T05:58:05;154619.22;;;22.17;100.00
54503;BME280;40411;50.090;21.954;2022-07-21T06:00:31;154656.69;;;22.32;98.47
54503;BME280;40411;50.090;21.954;2022-07-21T06:02:57;154654.06;;;22.30;100.00
54503;BME280;40411;50.090;21.954;2022-07-21T06:05:22;154728.88;;;22.60;100.00
54503;BME280;40411;50.090;21.954;2022-07-21T06:07:48;154683.72;;;22.42;100.00
54503;BME280;40411;50.090;21.954;2022-07-21T06:10:14;154735.34;;;22.63;98.39
54503;BME280;40411;50.090;21.954;2022-07-21T06:12:41;154797.25;;;22.87;94.57
54503;BME280;40411;50.090;21.954;2022-07-21T06:15:07;154860.47;;;23.12;99.32
54503;BME280;40411;50.090;21.954;2022-07-21T06:17:41;154771.44;;;22.77;89.79
54503;BME280;40411;50.090;21.954;2022-07-21T06:20:08;154861.75;;;23.13;90.49
54503;BME280;40411;50.090;21.954;2022-07-21T06:22:36;154934.00;;;23.41;91.58
54503;BME280;40411;50.090;21.954;2022-07-21T06:25:03;154953.34;;;23.49;92.16
54503;BME280;40411;50.090;21.954;2022-07-21T06:27:29;154974.00;;;23.57;91.68
54503;BME280;40411;50.090;21.954;2022-07-21T06:29:55;154921.06;;;23.36;86.58
54503;BME280;40411;50.090;21.954;2022-07-21T06:32:25;155026.91;;;23.78;86.10
54503;BME280;40411;50.090;21.954;2022-07-21T06:34:50;155038.53;;;23.83;82.43
54503;BME280;40411;50.090;21.954;2022-07-21T06:37:17;155170.19;;;24.35;78.63
54503;BME280;40411;50.090;21.954;2022-07-21T06:39:43;155498.22;;;25.65;73.94
54503;BME280;40411;50.090;21.954;2022-07-21T06:42:09;155685.59;;;26.39;71.08
54503;BME280;40411;50.090;21.954;2022-07-21T06:44:35;155854.94;;;27.06;69.05
54503;BME280;40411;50.090;21.954;2022-07-21T06:47:01;155813.56;;;26.90;61.96
54503;BME280;40411;50.090;21.954;2022-07-21T06:49:33;156090.31;;;27.99;47.40
54503;BME280;40411;50.090;21.954;2022-07-21T06:51:59;156140.72;;;28.19;45.01
54503;BME280;40411;50.090;21.954;2022-07-21T06:54:25;156142.06;;;28.20;44.79
54503;BME280;40411;50.090;21.954;2022-07-21T06:56:51;156167.91;;;28.30;43.96
54503;BME280;40411;50.090;21.954;2022-07-21T06:59:17;156284.38;;;28.76;43.31
54503;BME280;40411;50.090;21.954;2022-07-21T07:01:43;156391.81;;;29.18;44.64
54503;BME280;40411;50.090;21.954;2022-07-21T07:04:08;156116.19;;;28.10;43.11
54503;BME280;40411;50.090;21.954;2022-07-21T07:06:34;156083.84;;;27.97;44.92
54503;BME280;40411;50.090;21.954;2022-07-21T07:09:00;156266.25;;;28.69;41.85
54503;BME280;40411;50.090;21.954;2022-07-21T07:11:26;156376.28;;;29.12;43.57
54503;BME280;40411;50.090;21.954;2022-07-21T07:13:52;156426.75;;;29.32;42.47
54503;BME280;40411;50.090;21.954;2022-07-21T07:16:18;156101.97;;;28.04;43.07
54503;BME280;40411;50.090;21.954;2022-07-21T07:18:43;156579.53;;;29.93;43.58
54503;BME280;40411;50.090;21.954;2022-07-21T07:21:09;156613.13;;;30.06;45.90
54503;BME280;40411;50.090;21.954;2022-07-21T07:23:35;156753.00;;;30.61;45.01
54503;BME280;40411;50.090;21.954;2022-07-21T07:26:01;156675.34;;;30.31;43.19
54503;BME280;40411;50.090;21.954;2022-07-21T07:28:27;156981.06;;;31.51;39.42
54503;BME280;40411;50.090;21.954;2022-07-21T07:30:53;156926.63;;;31.30;40.62
54503;BME280;40411;50.090;21.954;2022-07-21T07:33:18;157051.03;;;31.79;38.14
54503;BME280;40411;50.090;21.954;2022-07-21T07:35:45;156583.38;;;29.94;38.69
54503;BME280;40411;50.090;21.954;2022-07-21T07:38:14;156676.63;;;30.31;43.30
54503;BME280;40411;50.090;21.954;2022-07-21T07:40:40;156598.91;;;30.00;42.51
54503;BME280;40411;50.090;21.954;2022-07-21T07:43:07;156894.22;;;31.17;40.94
54503;BME280;40411;50.090;21.954;2022-07-21T07:45:36;156955.16;;;31.41;38.78
54503;BME280;40411;50.090;21.954;2022-07-21T07:48:03;157044.56;;;31.76;37.46
54503;BME280;40411;50.090;21.954;2022-07-21T07:50:30;157010.84;;;31.63;40.25
54503;BME280;40411;50.090;21.954;2022-07-21T07:52:56;156892.94;;;31.16;36.95
54503;BME280;40411;50.090;21.954;2022-07-21T07:55:21;157089.91;;;31.94;40.37
54503;BME280;40411;50.090;21.954;2022-07-21T07:57:47;156795.75;;;30.78;38.23
54503;BME280;40411;50.090;21.954;2022-07-21T08:00:16;157045.84;;;31.77;37.85
54503;BME280;40411;50.090;21.954;2022-07-21T08:02:42;156952.59;;;31.40;39.31
54503;BME280;40411;50.090;21.954;2022-07-21T08:05:08;156873.50;;;31.09;36.49
54503;BME280;40411;50.090;21.954;2022-07-21T08:07:36;157337.47;;;32.92;35.84
54503;BME280;40411;50.090;21.954;2022-07-21T08:10:08;157525.56;;;33.66;35.32
54503;BME280;40411;50.090;21.954;2022-07-21T08:12:34;157590.41;;;33.92;36.57
54503;BME280;40411;50.090;21.954;2022-07-21T08:15:00;157515.16;;;33.62;38.24
54503;BME280;40411;50.090;21.954;2022-07-21T08:17:26;157665.69;;;34.21;34.93
54503;BME280;40411;50.090;21.954;2022-07-21T08:19:52;157328.41;;;32.88;36.29
54503;BME280;40411;50.090;21.954;2022-07-21T08:22:18;157377.72;;;33.08;33.27
54503;BME280;40411;50.090;21.954;2022-07-21T08:24:43;157354.31;;;32.99;37.97
54503;BME280;40411;50.090;21.954;2022-07-21T08:27:09;157316.75;;;32.84;34.95
54503;BME280;40411;50.090;21.954;2022-07-21T08:29:35;157513.88;;;33.62;36.57
54503;BME280;40411;50.090;21.954;2022-07-21T08:32:01;157320.66;;;32.85;35.95
54503;BME280;40411;50.090;21.954;2022-07-21T08:34:27;157554.09;;;33.77;35.13
54503;BME280;40411;50.090;21.954;2022-07-21T08:36:53;157048.41;;;31.78;33.26
54503;BME280;40411;50.090;21.954;2022-07-21T08:39:19;157222.16;;;32.46;35.41
54503;BME280;40411;50.090;21.954;2022-07-21T08:41:45;157546.31;;;33.74;35.19
54503;BME280;40411;50.090;21.954;2022-07-21T08:44:12;157643.59;;;34.13;30.29
54503;BME280;40411;50.090;21.954;2022-07-21T08:46:40;157385.50;;;33.11;35.92
54503;BME280;40411;50.090;21.954;2022-07-21T08:49:09;157573.56;;;33.85;35.95
54503;BME280;40411;50.090;21.954;2022-07-21T08:51:36;157517.81;;;33.63;31.52
54503;BME280;40411;50.090;21.954;2022-07-21T08:54:03;157701.97;;;34.36;31.17
54503;BME280;40411;50.090;21.954;2022-07-21T08:56:29;157515.16;;;33.62;36.29
54503;BME280;40411;50.090;21.954;2022-07-21T08:58:55;157535.91;;;33.70;30.61
54503;BME280;40411;50.090;21.954;2022-07-21T09:01:21;157596.88;;;33.94;30.98
54503;BME280;40411;50.090;21.954;2022-07-21T09:03:53;157403.63;;;33.18;34.05
54503;BME280;40411;50.090;21.954;2022-07-21T09:06:19;157695.50;;;34.33;29.52
54503;BME280;40411;50.090;21.954;2022-07-21T09:08:52;157487.88;;;33.51;29.09
54503;BME280;40411;50.090;21.954;2022-07-21T09:11:25;157248.03;;;32.57;32.44
54503;BME280;40411;50.090;21.954;2022-07-21T09:14:11;157482.75;;;33.49;28.67
54503;BME280;40411;50.090;21.954;2022-07-21T09:19:06;157548.91;;;33.75;29.78
54503;BME280;40411;50.090;21.954;2022-07-21T09:21:34;157255.84;;;32.60;29.68
54503;BME280;40411;50.090;21.954;2022-07-21T09:24:18;157414.00;;;33.22;29.17
54503;BME280;40411;50.090;21.954;2022-07-21T09:29:26;157974.47;;;35.43;31.33
54503;BME280;40411;50.090;21.954;2022-07-21T09:32:14;157425.69;;;33.27;30.05
54503;BME280;40411;50.090;21.954;2022-07-21T09:34:41;157611.16;;;34.00;27.80
54503;BME280;40411;50.090;21.954;2022-07-21T09:37:07;157507.41;;;33.59;28.80
54503;BME280;40411;50.090;21.954;2022-07-21T09:42:22;157447.72;;;33.35;27.96
54503;BME280;40411;50.090;21.954;2022-07-21T09:44:50;157725.31;;;34.45;28.29
54503;BME280;40411;50.090;21.954;2022-07-21T09:47:19;157427.00;;;33.27;32.44
54503;BME280;40411;50.090;21.954;2022-07-21T09:49:46;157356.97;;;33.00;31.83
54503;BME280;40411;50.090;21.954;2022-07-21T09:54:44;157557.97;;;33.79;33.23
54503;BME280;40411;50.090;21.954;2022-07-21T09:57:11;157650.06;;;34.15;29.59
54503;BME280;40411;50.090;21.954;2022-07-21T09:59:38;157779.84;;;34.66;26.44
54503;BME280;40411;50.090;21.954;2022-07-21T10:02:05;157800.63;;;34.75;26.81
54503;BME280;40411;50.090;21.954;2022-07-21T10:04:32;157694.22;;;34.33;26.45
54503;BME280;40411;50.090;21.954;2022-07-21T10:07:01;157868.03;;;35.01;29.51
54503;BME280;40411;50.090;21.954;2022-07-21T10:09:27;157882.38;;;35.07;30.21
54503;BME280;40411;50.090;21.954;2022-07-21T10:11:53;157652.69;;;34.16;30.49
54503;BME280;40411;50.090;21.954;2022-07-21T10:14:19;157450.31;;;33.36;30.16
54503;BME280;40411;50.090;21.954;2022-07-21T10:16:45;157585.19;;;33.90;28.36
54503;BME280;40411;50.090;21.954;2022-07-21T10:24:22;157910.91;;;35.18;30.55
54503;BME280;40411;50.090;21.954;2022-07-21T10:27:12;157807.09;;;34.77;27.12
54503;BME280;40411;50.090;21.954;2022-07-21T10:32:19;157812.25;;;34.79;33.11
54503;BME280;40411;50.090;21.954;2022-07-21T10:34:45;157747.34;;;34.54;30.15
54503;BME280;40411;50.090;21.954;2022-07-21T10:40:05;157657.84;;;34.18;30.46
54503;BME280;40411;50.090;21.954;2022-07-21T10:42:31;157779.84;;;34.66;27.94
54503;BME280;40411;50.090;21.954;2022-07-21T10:44:57;157761.69;;;34.59;29.17
54503;BME280;40411;50.090;21.954;2022-07-21T10:47:24;157364.75;;;33.03;30.09
54503;BME280;40411;50.090;21.954;2022-07-21T10:50:00;157236.41;;;32.52;32.44
54503;BME280;40411;50.090;21.954;2022-07-21T10:55:22;157464.56;;;33.42;29.11
54503;BME280;40411;50.090;21.954;2022-07-21T10:58:27;157525.56;;;33.66;28.65
54503;BME280;40411;50.090;21.954;2022-07-21T11:03:24;157442.53;;;33.33;29.17
54503;BME280;40411;50.090;21.954;2022-07-21T11:08:45;157534.63;;;33.70;29.42
54503;BME280;40411;50.090;21.954;2022-07-21T11:11:20;157603.38;;;33.97;29.99
54503;BME280;40411;50.090;21.954;2022-07-21T11:14:14;157318.03;;;32.84;30.65
54503;BME280;40411;50.090;21.954;2022-07-21T11:21:57;157412.72;;;33.22;30.06
54503;BME280;40411;50.090;21.954;2022-07-21T11:24:25;157424.38;;;33.26;28.33
54503;BME280;40411;50.090;21.954;2022-07-21T11:26:55;157585.19;;;33.90;31.42
54503;BME280;40411;50.090;21.954;2022-07-21T11:29:22;157538.53;;;33.71;29.97
54503;BME280;40411;50.090;21.954;2022-07-21T11:31:49;157521.66;;;33.65;29.20
54503;BME280;40411;50.090;21.954;2022-07-21T11:34:15;157421.78;;;33.25;28.89
54503;BME280;40411;50.090;21.954;2022-07-21T11:36:41;157180.63;;;32.30;29.48
54503;BME280;40411;50.090;21.954;2022-07-21T11:39:13;157407.53;;;33.20;30.12
54503;BME280;40411;50.090;21.954;2022-07-21T11:41:41;157305.09;;;32.79;27.91
54503;BME280;40411;50.090;21.954;2022-07-21T11:44:09;157468.47;;;33.44;31.36
54503;BME280;40411;50.090;21.954;2022-07-21T11:46:56;157643.59;;;34.13;27.88
54503;BME280;40411;50.090;21.954;2022-07-21T11:49:22;157478.81;;;33.48;28.32
54503;BME280;40411;50.090;21.954;2022-07-21T11:51:57;157451.59;;;33.37;31.27
54503;BME280;40411;50.090;21.954;2022-07-21T11:54:32;157377.72;;;33.08;32.42
54503;BME280;40411;50.090;21.954;2022-07-21T11:57:01;157218.19;;;32.45;28.38
54503;BME280;40411;50.090;21.954;2022-07-21T11:59:28;157385.50;;;33.11;30.61
54503;BME280;40411;50.090;21.954;2022-07-21T12:04:37;157480.13;;;33.48;30.99
54503;BME280;40411;50.090;21.954;2022-07-21T12:07:07;157312.88;;;32.82;30.76
54503;BME280;40411;50.090;21.954;2022-07-21T12:09:36;157159.88;;;32.22;31.69
54503;BME280;40411;50.090;21.954;2022-07-21T12:12:02;157380.31;;;33.09;29.93
54503;BME280;40411;50.090;21.954;2022-07-21T12:14:42;157467.13;;;33.43;25.76
54503;BME280;40411;50.090;21.954;2022-07-21T12:17:10;157423.06;;;33.26;29.82
54503;BME280;40411;50.090;21.954;2022-07-21T12:19:37;157465.84;;;33.43;27.24
54503;BME280;40411;50.090;21.954;2022-07-21T12:22:04;157463.28;;;33.42;28.18
54503;BME280;40411;50.090;21.954;2022-07-21T12:24:54;157411.44;;;33.21;31.41
54503;BME280;40411;50.090;21.954;2022-07-21T12:27:21;157458.09;;;33.40;28.33
54503;BME280;40411;50.090;21.954;2022-07-21T12:29:49;157336.19;;;32.91;27.13
54503;BME280;40411;50.090;21.954;2022-07-21T12:32:46;157336.19;;;32.91;28.70
54503;BME280;40411;50.090;21.954;2022-07-21T12:35:22;157296.00;;;32.76;31.74
54503;BME280;40411;50.090;21.954;2022-07-21T12:37:53;157382.94;;;33.10;27.90
54503;BME280;40411;50.090;21.954;2022-07-21T12:40:20;157458.09;;;33.40;30.25
54503;BME280;40411;50.090;21.954;2022-07-21T12:42:47;157228.63;;;32.49;26.87
54503;BME280;40411;50.090;21.954;2022-07-21T12:45:15;157310.25;;;32.81;29.45
54503;BME280;40411;50.090;21.954;2022-07-21T12:47:42;157546.31;;;33.74;27.91
54503;BME280;40411;50.090;21.954;2022-07-21T12:50:16;157497.06;;;33.55;31.66
54503;BME280;40411;50.090;21.954;2022-07-21T12:52:43;157477.53;;;33.47;29.24
54503;BME280;40411;50.090;21.954;2022-07-21T12:55:09;157556.66;;;33.78;27.64
54503;BME280;40411;50.090;21.954;2022-07-21T12:57:39;157595.59;;;33.94;25.67
54503;BME280;40411;50.090;21.954;2022-07-21T13:00:06;157647.50;;;34.14;25.93
54503;BME280;40411;50.090;21.954;2022-07-21T13:02:48;157712.34;;;34.40;30.23
54503;BME280;40411;50.090;21.954;2022-07-21T13:05:15;157554.09;;;33.77;25.81
54503;BME280;40411;50.090;21.954;2022-07-21T13:07:41;157615.00;;;34.01;28.01
54503;BME280;40411;50.090;21.954;2022-07-21T13:10:09;157385.50;;;33.11;28.28
54503;BME280;40411;50.090;21.954;2022-07-21T13:12:35;157410.09;;;33.21;27.27
54503;BME280;40411;50.090;21.954;2022-07-21T13:15:03;157406.25;;;33.19;28.34